createdAt,value
2023-04-17T00:04:41.211Z,11.58
2023-04-17T00:09:43.897Z,11.63
2023-04-17T00:14:46.429Z,11.63
2023-04-17T00:19:50.382Z,11.71
2023-04-17T00:24:52.989Z,11.41
2023-04-17T00:29:55.835Z,11.24
2023-04-17T00:34:58.740Z,11.36
2023-04-17T00:40:04.520Z,11.42
2023-04-17T00:45:11.065Z,11.19
2023-04-17T00:50:14.299Z,11.29
2023-04-17T00:55:17.639Z,11.20
2023-04-17T01:00:20.235Z,11.27
2023-04-17T01:05:24.051Z,11.36
2023-04-17T01:10:26.754Z,11.52
2023-04-17T01:15:29.552Z,11.24
2023-04-17T01:20:33.126Z,11.23
2023-04-17T01:25:36.317Z,11.23
2023-04-17T01:30:39.140Z,11.15
2023-04-17T01:35:44.237Z,11.17
2023-04-17T01:40:46.946Z,11.12
2023-04-17T01:45:49.539Z,11.10
2023-04-17T01:50:53.474Z,11.21
2023-04-17T01:55:56.632Z,11.40
2023-04-17T02:00:59.782Z,11.49
2023-04-17T02:06:02.746Z,11.70
2023-04-17T02:11:05.570Z,11.59
2023-04-17T02:16:09.819Z,11.48
2023-04-17T02:21:12.705Z,11.34
2023-04-17T02:26:16.226Z,11.17
2023-04-17T02:31:20.351Z,11.18
2023-04-17T02:36:22.969Z,11.26
2023-04-17T02:41:25.811Z,11.13
2023-04-17T02:46:29.077Z,11.05
2023-04-17T02:51:33.080Z,11.11
2023-04-17T02:56:35.855Z,11.27
2023-04-17T03:01:38.921Z,11.43
2023-04-17T03:06:41.570Z,11.54
2023-04-17T03:11:44.352Z,11.39
2023-04-17T03:16:47.080Z,10.94
2023-04-17T03:21:50.064Z,10.97
2023-04-17T03:26:52.884Z,11.12
2023-04-17T03:31:57.253Z,11.32
2023-04-17T03:37:00.201Z,11.45
2023-04-17T03:42:08.117Z,11.49
2023-04-17T03:47:11.511Z,11.55
2023-04-17T03:52:16.456Z,11.43
2023-04-17T03:57:21.120Z,11.19
2023-04-17T04:02:24.973Z,11.04
2023-04-17T04:07:30.103Z,11.15
2023-04-17T04:12:34.380Z,11.09
2023-04-17T04:17:37.807Z,10.90
2023-04-17T04:22:41.765Z,10.94
2023-04-17T04:27:49.777Z,11.13
2023-04-17T04:33:01.386Z,11.21
2023-04-17T04:38:05.182Z,11.40
2023-04-17T04:43:10.001Z,11.51
2023-04-17T04:48:17.261Z,11.41
2023-04-17T04:53:21.051Z,11.31
2023-04-17T04:58:31.381Z,11.53
2023-04-17T05:03:37.715Z,11.39
2023-04-17T05:08:42.054Z,11.33
2023-04-17T05:13:47.142Z,11.31
2023-04-17T05:19:02.056Z,11.46
2023-04-17T05:24:24.861Z,11.42
2023-04-17T05:29:27.619Z,11.33
2023-04-17T05:34:32.234Z,11.38
2023-04-17T05:39:35.742Z,11.21
2023-04-17T05:44:38.548Z,11.17
2023-04-17T05:49:42.588Z,11.33
2023-04-17T05:54:45.812Z,11.42
2023-04-17T05:59:49.436Z,11.37
2023-04-17T06:04:52.782Z,11.23
2023-04-17T06:09:55.780Z,11.30
2023-04-17T06:14:58.420Z,11.34
2023-04-17T06:20:01.308Z,11.34
2023-04-17T06:25:04.574Z,11.25
2023-04-17T06:30:07.749Z,11.23
2023-04-17T06:35:21.529Z,11.28
2023-04-17T06:40:29.627Z,11.08
2023-04-17T06:45:34.513Z,11.06
2023-04-17T06:50:42.367Z,11.18
2023-04-17T06:55:45.343Z,11.17
2023-04-17T07:00:47.910Z,11.35
2023-04-17T07:05:50.912Z,11.28
2023-04-17T07:10:54.774Z,11.28
2023-04-17T07:15:58.646Z,11.33
2023-04-17T07:21:02.279Z,11.29
2023-04-17T07:26:05.088Z,11.31
2023-04-17T07:31:08.976Z,11.40
2023-04-17T07:36:12.747Z,11.32
2023-04-17T07:41:15.693Z,11.23
2023-04-17T07:46:18.610Z,11.26
2023-04-17T07:51:21.155Z,11.28
2023-04-17T07:56:24.483Z,11.26
2023-04-17T08:01:28.091Z,11.28
2023-04-17T08:06:30.958Z,11.55
2023-04-17T08:11:40.090Z,11.39
2023-04-17T08:16:45.441Z,11.43
2023-04-17T08:21:51.980Z,11.54
2023-04-17T08:26:54.626Z,11.62
2023-04-17T08:32:10.899Z,11.74
2023-04-17T08:37:16.920Z,11.70
2023-04-17T08:42:19.639Z,11.66
2023-04-17T08:47:22.433Z,11.68
2023-04-17T08:52:25.312Z,11.77
2023-04-17T08:57:28.073Z,11.90
2023-04-17T09:02:30.806Z,12.08
2023-04-17T09:07:33.901Z,12.09
2023-04-17T09:12:41.946Z,12.19
2023-04-17T09:17:44.636Z,12.16
2023-04-17T09:22:47.446Z,12.22
2023-04-17T09:27:50.084Z,12.54
2023-04-17T09:33:04.742Z,12.52
2023-04-17T09:38:07.651Z,12.81
2023-04-17T09:43:11.054Z,12.68
2023-04-17T09:48:14.294Z,12.77
2023-04-17T09:53:19.410Z,13.36
2023-04-17T09:58:22.629Z,13.59
2023-04-17T10:03:27.147Z,13.23
2023-04-17T10:08:30.103Z,13.23
2023-04-17T10:13:36.234Z,13.04
2023-04-17T10:18:39.692Z,13.19
2023-04-17T10:23:43.022Z,13.55
2023-04-17T10:28:50.039Z,13.83
2023-04-17T10:33:54.573Z,13.78
2023-04-17T10:39:16.200Z,13.80
2023-04-17T10:44:19.250Z,13.73
2023-04-17T10:49:24.973Z,14.16
2023-04-17T10:54:27.674Z,14.08
2023-04-17T10:59:31.298Z,14.29
2023-04-17T11:04:34.549Z,14.97
2023-04-17T11:09:38.150Z,15.13
2023-04-17T11:14:43.296Z,17.66
2023-04-17T11:19:46.953Z,18.72
2023-04-17T11:24:52.217Z,20.55
2023-04-17T11:29:54.855Z,19.80
2023-04-17T11:34:58.123Z,20.36
2023-04-17T11:40:08.390Z,22.05
2023-04-17T11:45:11.645Z,21.27
2023-04-17T11:50:16.609Z,20.16
2023-04-17T11:55:19.320Z,17.92
2023-04-17T12:00:27.688Z,16.65
2023-04-17T12:05:31.491Z,15.85
2023-04-17T12:10:42.968Z,15.23
2023-04-17T12:15:45.797Z,15.15
2023-04-17T12:20:48.853Z,15.37
2023-04-17T12:25:51.398Z,15.07
2023-04-17T12:30:53.977Z,15.05
2023-04-17T12:35:56.677Z,15.07
2023-04-17T12:40:59.498Z,15.15
2023-04-17T12:46:02.575Z,15.36
2023-04-17T12:51:05.516Z,16.29
2023-04-17T12:56:08.480Z,17.43
2023-04-17T13:01:11.148Z,16.62
2023-04-17T13:06:16.121Z,15.85
2023-04-17T13:11:18.848Z,15.84
2023-04-17T13:16:21.587Z,15.76
2023-04-17T13:21:24.258Z,15.71
2023-04-17T13:26:26.864Z,15.24
2023-04-17T13:31:29.603Z,15.04
2023-04-17T13:36:32.653Z,15.00
2023-04-17T13:41:36.474Z,14.95
2023-04-17T13:46:39.505Z,15.08
2023-04-17T13:51:42.172Z,15.31
2023-04-17T13:56:45.781Z,15.53
2023-04-17T14:01:48.503Z,15.86
2023-04-17T14:06:51.666Z,15.93
2023-04-17T14:11:54.274Z,15.98
2023-04-17T14:16:57.807Z,16.36
2023-04-17T14:22:00.501Z,16.32
2023-04-17T14:27:04.016Z,15.94
2023-04-17T14:32:06.866Z,15.60
2023-04-17T14:37:09.432Z,15.21
2023-04-17T14:42:11.967Z,15.01
2023-04-17T14:47:14.796Z,15.04
2023-04-17T14:52:17.597Z,15.32
2023-04-17T14:57:21.212Z,15.77
2023-04-17T15:02:24.004Z,16.56
2023-04-17T15:07:26.781Z,16.56
2023-04-17T15:12:29.573Z,16.64
2023-04-17T15:17:32.523Z,16.30
2023-04-17T15:22:35.536Z,15.96
2023-04-17T15:27:38.170Z,16.02
2023-04-17T15:32:41.996Z,16.29
2023-04-17T15:37:44.690Z,16.21
2023-04-17T15:42:47.288Z,16.24
2023-04-17T15:47:50.251Z,16.11
2023-04-17T15:52:52.977Z,15.87
2023-04-17T15:57:56.195Z,15.71
2023-04-17T16:02:58.994Z,15.49
2023-04-17T16:08:01.988Z,15.41
2023-04-17T16:13:04.781Z,15.74
2023-04-17T16:18:08.982Z,15.84
2023-04-17T16:23:11.695Z,15.63
2023-04-17T16:28:14.263Z,15.49
2023-04-17T16:33:17.104Z,15.32
2023-04-17T16:38:19.787Z,15.43
2023-04-17T16:43:22.588Z,15.16
2023-04-17T16:48:25.585Z,15.03
2023-04-17T16:53:28.306Z,14.64
2023-04-17T16:58:30.955Z,14.28
2023-04-17T17:03:34.308Z,14.27
2023-04-17T17:08:37.298Z,14.48
2023-04-17T17:13:40.348Z,14.45
2023-04-17T17:18:43.441Z,14.35
2023-04-17T17:23:46.090Z,14.34
2023-04-17T17:28:51.478Z,14.43
2023-04-17T17:33:55.400Z,14.72
2023-04-17T17:39:00.217Z,14.42
2023-04-17T17:44:03.813Z,14.23
2023-04-17T17:49:08.915Z,14.00
2023-04-17T17:54:12.263Z,13.87
2023-04-17T17:59:14.996Z,13.59
2023-04-17T18:04:17.910Z,13.52
2023-04-17T18:09:20.963Z,13.46
2023-04-17T18:14:23.667Z,13.40
2023-04-17T18:19:26.241Z,13.43
2023-04-17T18:24:28.952Z,13.42
2023-04-17T18:29:31.690Z,13.34
2023-04-17T18:34:34.643Z,13.33
2023-04-17T18:39:37.244Z,13.31
2023-04-17T18:44:40.145Z,13.35
2023-04-17T18:49:42.752Z,13.20
2023-04-17T18:54:45.413Z,13.24
2023-04-17T18:59:48.104Z,13.10
2023-04-17T19:04:50.774Z,12.99
2023-04-17T19:09:53.326Z,12.94
2023-04-17T19:14:57.494Z,13.40
2023-04-17T19:20:00.278Z,13.66
2023-04-17T19:25:03.221Z,13.19
2023-04-17T19:30:08.952Z,13.35
2023-04-17T19:35:11.759Z,13.40
2023-04-17T19:40:23.654Z,13.37
2023-04-17T19:45:27.300Z,13.03
2023-04-17T19:50:30.712Z,12.91
2023-04-17T19:55:33.798Z,12.94
2023-04-17T20:00:36.428Z,13.19
2023-04-17T20:05:39.086Z,12.91
2023-04-17T20:10:41.728Z,12.76
2023-04-17T20:15:44.750Z,12.76
2023-04-17T20:20:47.411Z,12.64
2023-04-17T20:25:50.656Z,12.42
2023-04-17T20:30:53.571Z,12.34
2023-04-17T20:35:56.298Z,12.08
2023-04-17T20:40:58.903Z,11.77
2023-04-17T20:46:02.191Z,11.95
2023-04-17T20:51:06.170Z,11.87
2023-04-17T20:56:08.934Z,11.88
2023-04-17T21:01:11.546Z,12.23
2023-04-17T21:06:14.352Z,12.05
2023-04-17T21:11:17.064Z,12.07
2023-04-17T21:16:19.889Z,11.88
2023-04-17T21:21:22.767Z,11.86
2023-04-17T21:26:25.477Z,11.87
2023-04-17T21:31:28.135Z,11.84
2023-04-17T21:36:31.632Z,12.03
2023-04-17T21:41:34.835Z,11.99
2023-04-17T21:46:38.558Z,11.95
2023-04-17T21:51:41.357Z,11.96
2023-04-17T21:56:44.107Z,11.73
2023-04-17T22:01:46.799Z,11.91
2023-04-17T22:06:51.910Z,11.79
2023-04-17T22:11:54.589Z,11.66
2023-04-17T22:16:57.198Z,11.64
2023-04-17T22:21:59.877Z,11.65
2023-04-17T22:27:02.594Z,11.74
2023-04-17T22:32:05.434Z,11.77
2023-04-17T22:37:08.614Z,11.69
2023-04-17T22:42:11.187Z,11.48
2023-04-17T22:47:14.444Z,11.48
2023-04-17T22:52:17.008Z,12.12
2023-04-17T22:57:19.533Z,12.68
2023-04-17T23:02:22.183Z,12.92
2023-04-17T23:07:24.788Z,13.53
2023-04-17T23:12:27.543Z,13.65
2023-04-17T23:17:30.115Z,13.83
2023-04-17T23:22:33.157Z,13.83
2023-04-17T23:27:36.170Z,14.08
2023-04-17T23:32:41.859Z,14.16
2023-04-17T23:37:44.481Z,14.25
2023-04-17T23:42:47.165Z,14.25
2023-04-17T23:47:49.979Z,13.73
2023-04-17T23:52:54.404Z,13.99
2023-04-17T23:57:57.701Z,13.43
